Neodesha, Kansas
Current Conditions -  °F | °C
As of 10:52 AM on Saturday 22 Nov 2014 (Local Time) from KPPF Reporting Station
Overcast Overcast  
Wind Chill: 57°   Ceiling: 1200
Heat Index: 57°   Visibility: 10mi
Dew Point: 53°   Wind: 12mph
Humidity: 87%   Direction: 190°S
Pressure: 29.99"   Gusts: NA
Location:  37.42°N, 95.68°W
Report Text: KPPF 221652Z AUTO 19010KT 10SM OVC012 14/12 A2999 RMK AO2 SLP153 T01390117
Loading
Personal Weather Stations






























Interactive Weather Map New forecast layout! Learn more

10-Day Weather Forecast

Advertisements
Track Severe Weather on mobile